Terminal Aerodrome Forecast
Issued by NWS Corpus Christi, TX

Home | Current Version | Previous Version | Text Only | Print | Product List | Glossary On
Versions: 1 2 3 4 5 6 7 8 9 10 11 12 13 14 15 16
180
FTUS44 KCRP 290537
TAFVCT
TAF
KVCT 290537Z 2906/3006 18003KT P6SM SCT020
     FM291000 VRB03KT P6SM SCT009 BKN020
     FM291500 18009KT P6SM VCSH SCT025
      TEMPO 2915/2917 BKN025
     FM291700 17012KT P6SM VCTS BKN035CB PROB30 2918/2922 5SM TSRA
      OVC035CB
     FM292200 15012G18KT P6SM SCT040
     FM300300 16008KT P6SM SCT025=

USA.gov is the U.S. government's official web portal to all federal, state and local government web resources and services.